• Join FlightAware (Why Join?)
  • Login
  • US Flag 
02:42AM EDT


 

Airport Tracker/Info


-or-


 

Live Flight TrackerFlight Track Log ✈ UAL5915 ✈ 04-Nov-2013 ✈ KMOB - KORD

Flight Track Log - Related Links

Times and Time Zones

All times are in EST time to prevent confusion due to time zone crossing. See the UAL5915 flight status page for this flight to view local times or setup timezone preferences in your user account.

Time Position Orientation Groundspeed Altitude Reporting Facility
EST Latitude Longitude Course Direction KTS MPH feet Rate Location/Type
02:33PM 30.6625 -88.2106 12° North 186 214 2,000  Level Houston Center
02:34PM 30.6775 -88.1392 76° East 191 220 4,600 2,040 Climbing Houston Center
02:35PM 30.7397 -88.1219 13° North 242 278 6,300 1,860 Climbing Houston Center
02:36PM 31.1585 -88.2307 North  Level Estimated
02:36PM 30.8103 -88.1061 11° North 252 290 8,500  Level Houston Center
02:37PM 31.2525 -88.1497 36° Northeast  Level FlightAware Approximate
02:37PM 30.8831 -88.0869 13° North 263 303 10,500  Level Houston Center
02:38PM 31.3693 -88.1474 11° North  Level Estimated
02:38PM 30.9586 -88.0664 13° North 277 319 12,300  Level Houston Center
02:39PM 31.4829 -88.1451 12° North  Level Estimated
02:39PM 31.0533 -88.0442 11° North 292 336 14,500  Level Houston Center
02:40PM 31.1336 -88.0233 13° North 299 344 16,200 1,560 Climbing Houston Center
02:41PM 31.2158 -88.0033 12° North 304 350 17,800 1,080 Climbing Houston Center
02:43PM 31.3014 -87.9833 11° North 311 358 18,500 660 Climbing Houston Center
02:44PM 31.4142 -87.9542 12° North 338 389 19,200 960 Climbing Houston Center
02:45PM 31.5158 -87.9292 12° North 366 421 20,500 1,500 Climbing Houston Center
02:46PM 31.6125 -87.9031 13° North 361 415 22,400 1,680 Climbing Houston Center
02:46PM 31.6678 -87.8917 10° North 356 410 23,300 1,260 Climbing Atlanta Center
02:47PM 31.7644 -87.8689 11° North 351 404 24,500 1,080 Climbing Atlanta Center
02:48PM 31.8614 -87.8436 12° North 351 404 25,500 960 Climbing Atlanta Center
02:49PM 31.9600 -87.8183 12° North 356 410 26,500 1,020 Climbing Atlanta Center
02:50PM 32.0631 -87.7933 12° North 356 410 27,600 1,020 Climbing Atlanta Center
02:51PM 32.1642 -87.7681 12° North 356 410 28,600 1,020 Climbing Atlanta Center
02:52PM 32.2692 -87.7406 12° North 362 417 29,700 1,020 Climbing Atlanta Center
02:53PM 32.3725 -87.7128 13° North 369 425 30,700 900 Climbing Atlanta Center
02:54PM 32.4881 -87.6858 11° North 374 430 31,500 960 Climbing Atlanta Center
02:55PM 32.5767 -87.6547 16° North 374 430 32,700 1,140 Climbing Atlanta Center
02:56PM 32.6839 -87.6272 12° North 374 430 33,800 780 Climbing Atlanta Center
02:57PM 32.7889 -87.5994 13° North 374 430 34,300 600 Climbing Atlanta Center
02:58PM 32.8942 -87.5714 13° North 374 430 35,000 300 Climbing Atlanta Center
02:59PM 33.0139 -87.5392 13° North 381 438 35,000  Level Atlanta Center
03:00PM 33.1297 -87.5092 12° North 398 458 35,000  Level Atlanta Center
03:01PM 33.2517 -87.4767 13° North 420 483 35,000  Level Atlanta Center
03:02PM 33.3736 -87.4442 13° North 432 497 35,000  Level Atlanta Center
03:03PM 33.4514 -87.4242 12° North 436 502 35,000  Level Memphis Center
03:05PM 33.7436 -87.3464 12° North 440 506 35,000  Level Atlanta Center
03:06PM 33.8678 -87.3111 13° North 445 512 35,000  Level Atlanta Center
03:07PM 33.9897 -87.2783 13° North 450 518 35,000  Level Atlanta Center
03:08PM 34.1136 -87.2428 13° North 450 518 35,000  Level Atlanta Center
03:10PM 34.2553 -87.2536 356° North  Level Estimated
03:10PM 34.3658 -87.1717 356° North 455 524 35,000  Level Atlanta Center
03:11PM 34.4919 -87.1386 12° North 455 524 35,000  Level Atlanta Center
03:12PM 34.6181 -87.1056 12° North 455 524 35,000  Level Atlanta Center
03:13PM 34.7419 -87.0719 13° North 450 518 35,000  Level Atlanta Center
03:14PM 34.8594 -87.0433 11° North 458 527 35,000  Level Atlanta Center
03:15PM 34.9856 -87.0075 13° North 458 527 35,000  Level Atlanta Center
03:16PM 35.1117 -86.9739 12° North 463 533 35,000  Level Atlanta Center
03:17PM 35.2417 -86.9378 13° North 455 524 35,000  Level Memphis Center
03:18PM 35.3681 -86.9019 13° North 455 524 35,000  Level Memphis Center
03:19PM 35.4900 -86.8689 12° North 447 514 35,000  Level Memphis Center
03:20PM 35.6247 -86.8325 12° North 447 514 35,000  Level Memphis Center
03:21PM 35.7425 -86.7967 14° North 447 514 35,000  Level Memphis Center
03:22PM 35.8667 -86.7606 13° North 447 514 35,000  Level Memphis Center
03:23PM 35.9867 -86.7272 13° North 447 514 35,000  Level Memphis Center
03:24PM 36.1086 -86.6908 14° North 447 514 35,000  Level Memphis Center
03:25PM 36.2275 -86.6289 23° Northeast 452 520 35,000  Level Memphis Center
03:26PM 36.3508 -86.5639 23° Northeast 473 544 35,000  Level Memphis Center
03:27PM 36.4717 -86.4992 23° Northeast 473 544 35,000  Level Memphis Center
03:28PM 36.5886 -86.4367 23° Northeast 468 539 35,000  Level Memphis Center
03:29PM 36.7094 -86.3686 24° Northeast 468 539 35,000  Level Memphis Center
03:31PM 36.8856 -86.2708 24° Northeast 469 540 35,000  Level Indianapolis Center
03:32PM 37.0067 -86.2022 24° Northeast 473 544 35,000  Level Indianapolis Center
03:33PM 37.1469 -86.1225 24° Northeast 471 542 35,000  Level Indianapolis Center
03:34PM 37.2683 -86.0550 24° Northeast 473 544 35,000  Level Indianapolis Center
03:35PM 37.3889 -85.9856 25° Northeast 473 544 35,000  Level Indianapolis Center
03:36PM 37.5094 -85.9172 24° Northeast 472 543 35,000  Level Indianapolis Center
03:37PM 37.6225 -85.8539 24° Northeast 473 544 35,000  Level Indianapolis Center
03:38PM 37.7683 -85.7694 25° Northeast 477 549 35,000  Level Indianapolis Center
03:39PM 37.8889 -85.7014 24° Northeast 476 548 35,000  Level Indianapolis Center
03:40PM 38.0083 -85.6328 24° Northeast 474 545 35,000  Level Indianapolis Center
03:41PM 38.1319 -85.5797 19° North 469 540 35,000  Level Indianapolis Center
03:42PM 38.2539 -85.5831 359° North 441 507 35,000  Level Indianapolis Center
03:43PM 38.3750 -85.5881 358° North 436 502 35,000  Level Indianapolis Center
03:44PM 38.5219 -85.5939 358° North 437 503 35,000  Level Indianapolis Center
03:45PM 38.6483 -85.6000 358° North 442 509 35,000 -600 Level Indianapolis Center
03:46PM 38.7725 -85.6050 358° North 447 514 33,800 -1,320 Descending Indianapolis Center
03:47PM 38.8986 -85.6111 358° North 453 521 32,300 -1,440 Descending Indianapolis Center
03:48PM 39.0222 -85.6142 359° North 448 516 30,900 -1,140 Descending Indianapolis Center
03:50PM 39.1472 -85.6208 358° North 450 518 30,000 -480 Descending Indianapolis Center
03:51PM 39.2972 -85.6278 358° North 452 520 30,000 -600 Level Indianapolis Center
03:52PM 39.4247 -85.6319 359° North 459 528 28,800 -1,020 Descending Indianapolis Center
03:53PM 39.5567 -85.6383 358° North 474 545 28,000 -420 Descending Indianapolis Center
03:54PM 39.6867 -85.6442 358° North 474 545 28,000  Level Indianapolis Center
03:55PM 39.8164 -85.6483 359° North 472 543 28,000  Level Indianapolis Center
03:56PM 39.9717 -85.6564 358° North 471 542 28,000 -720 Level Indianapolis Center
03:57PM 40.1014 -85.6614 358° North 470 541 26,600 -1,020 Descending Indianapolis Center
03:58PM 40.2317 -85.6681 358° North 471 542 26,000 -900 Descending Indianapolis Center
03:59PM 40.3611 -85.6731 358° North 470 541 24,800 -1,860 Descending Indianapolis Center
04:00PM 40.4828 -85.6789 358° North 443 510 22,400 -2,340 Descending Chicago Center
04:01PM 40.5953 -85.7092 348° North 417 480 20,200 -1,200 Descending Chicago Center
04:02PM 40.6922 -85.7553 340° North 388 447 20,000 -120 Descending Chicago Center
04:03PM 40.7892 -85.8678 319° Northwest 386 444 20,000  Level Chicago Center
04:04PM 40.8717 -85.9567 321° Northwest 384 442 20,000  Level Chicago Center
04:05PM 40.9561 -86.0453 322° Northwest 384 442 20,000  Level Chicago Center
04:06PM 41.0403 -86.1361 321° Northwest 388 447 20,000  Level Chicago Center
04:07PM 41.1272 -86.2256 322° Northwest 393 452 20,000  Level Chicago Center
04:08PM 41.2122 -86.3169 321° Northwest 393 452 20,000  Level Chicago Center
04:09PM 41.3181 -86.4292 321° Northwest 403 464 20,000 -540 Level Chicago Center
04:10PM 41.4039 -86.5222 321° Northwest 400 460 19,000 -1,500 Descending Chicago Center
04:11PM 41.4875 -86.6106 322° Northwest 387 445 17,000 -2,460 Descending Chicago Center
04:12PM 41.5661 -86.6958 321° Northwest 368 423 14,000 -2,400 Descending Chicago Center
04:13PM 41.6492 -86.7836 322° Northwest 369 425 12,100 -960 Descending Chicago Center
04:14PM 41.7542 -86.8069 351° North 386 444 12,100  Level Chicago Center
04:15PM 41.8758 -86.8453 347° North 377 434 12,100 -540 Level Chicago Center
04:17PM 41.9803 -87.0433 305° West 334 384 10,600 -720 Descending Chicago Center
04:18PM 41.9825 -87.1531 272° West 304 350 9,900 -840 Descending Chicago Center
04:19PM 41.9833 -87.2453 271° West 265 305 8,900 -960 Descending Chicago Center
04:20PM 41.9836 -87.3547 270° West 249 287 8,000 -780 Descending Chicago Center
04:22PM 41.9819 -87.4392 269° West 236 272 7,400 -900 Descending Chicago Center
04:23PM 41.9831 -87.5211 271° West 224 258 6,200 -1,200 Descending Chicago Center
04:24PM 41.9842 -87.5997 271° West 219 252 5,000 -1,260 Descending Chicago Center
04:24PM 41.9833 -87.6667 269° West 203 234 3,900 -1,260 Descending Chicago TRACON
04:25PM 41.9833 -87.7500 270° West 207 238 2,700 -1,080 Descending Chicago TRACON
04:26PM 41.9833 -87.8167 270° West 155 178 1,800 -840 Descending Chicago TRACON
04:27PM 41.9833 -87.8667 270° West 138 159 1,100 -720 Descending Chicago TRACON